createdAt,value
2018-10-17T00:00:20.006Z,85.76
2018-10-17T00:01:19.974Z,85.62
2018-10-17T00:02:19.960Z,85.76
2018-10-17T00:03:19.975Z,85.82
2018-10-17T00:04:19.952Z,85.56
2018-10-17T00:05:19.941Z,86.07
2018-10-17T00:06:19.917Z,85.66
2018-10-17T00:07:19.911Z,85.56
2018-10-17T00:08:19.911Z,85.56
2018-10-17T00:09:19.893Z,86.16
2018-10-17T00:10:19.896Z,86.47
2018-10-17T00:11:19.870Z,85.96
2018-10-17T00:12:19.878Z,86.21
2018-10-17T00:13:19.870Z,87.02
2018-10-17T00:14:19.840Z,86.10
2018-10-17T00:15:19.830Z,86.61
2018-10-17T00:16:19.827Z,87.02
2018-10-17T00:17:19.806Z,87.02
2018-10-17T00:18:19.805Z,87.12
2018-10-17T00:20:40.209Z,86.41
2018-10-17T00:21:41.231Z,86.71
2018-10-17T00:22:41.247Z,87.06
2018-10-17T00:23:41.246Z,86.86
2018-10-17T00:24:41.183Z,86.82
2018-10-17T00:25:41.166Z,86.82
2018-10-17T00:26:41.152Z,86.91
2018-10-17T00:27:41.139Z,86.71
2018-10-17T00:28:41.154Z,86.76
2018-10-17T00:29:41.136Z,86.96
2018-10-17T00:30:41.101Z,86.86
2018-10-17T00:31:41.096Z,86.61
2018-10-17T00:32:41.118Z,86.76
2018-10-17T00:33:41.094Z,87.06
2018-10-17T00:34:41.089Z,87.06
2018-10-17T00:35:41.060Z,87.10
2018-10-17T00:36:41.066Z,87.30
2018-10-17T00:37:41.053Z,86.69
2018-10-17T00:38:41.022Z,87.95
2018-10-17T00:39:41.023Z,87.75
2018-10-17T00:40:41.048Z,87.85
2018-10-17T00:41:41.034Z,88.81
2018-10-17T00:42:41.021Z,88.91
2018-10-17T00:43:40.977Z,88.91
2018-10-17T00:44:40.985Z,90.53
2018-10-17T00:45:40.956Z,90.07
2018-10-17T00:46:40.926Z,90.03
2018-10-17T00:47:40.975Z,90.27
2018-10-17T00:48:40.910Z,89.76
2018-10-17T00:49:40.904Z,90.07
2018-10-17T00:50:40.880Z,90.11
2018-10-17T00:51:40.878Z,90.01
2018-10-17T00:52:40.900Z,89.95
2018-10-17T00:53:40.874Z,90.77
2018-10-17T00:54:40.877Z,90.66
2018-10-17T00:55:40.897Z,90.77
2018-10-17T00:56:40.844Z,90.91
2018-10-17T00:57:40.827Z,90.81
2018-10-17T00:58:40.828Z,91.42
2018-10-17T00:59:40.848Z,91.93
2018-10-17T01:00:40.843Z,93.25
2018-10-17T01:01:40.760Z,93.15
2018-10-17T01:02:40.777Z,93.15
2018-10-17T01:03:40.744Z,93.05
2018-10-17T01:04:40.752Z,92.99
2018-10-17T01:05:40.734Z,93.09
2018-10-17T01:06:40.713Z,93.29
2018-10-17T01:07:40.735Z,94.37
2018-10-17T01:08:40.709Z,94.27
2018-10-17T01:09:40.701Z,94.47
2018-10-17T01:10:40.679Z,94.11
2018-10-17T01:11:40.662Z,94.31
2018-10-17T01:12:40.707Z,94.42
2018-10-17T01:13:40.629Z,94.11
2018-10-17T01:14:40.623Z,94.52
2018-10-17T01:15:40.681Z,93.90
2018-10-17T01:16:40.590Z,93.40
2018-10-17T01:17:40.613Z,93.70
2018-10-17T01:18:40.595Z,94.31
2018-10-17T01:19:40.608Z,94.62
2018-10-17T01:20:40.595Z,94.92
2018-10-17T01:21:40.545Z,94.42
2018-10-17T01:22:40.543Z,94.21
2018-10-17T01:23:40.524Z,94.21
2018-10-17T01:24:40.509Z,95.43
2018-10-17T01:25:41.275Z,95.23
2018-10-17T01:26:40.506Z,95.23
2018-10-17T01:27:40.506Z,95.43
2018-10-17T01:28:40.481Z,94.92
2018-10-17T01:29:40.452Z,94.52
2018-10-17T01:30:40.518Z,94.31
2018-10-17T01:31:40.446Z,94.42
2018-10-17T01:32:40.447Z,94.31
2018-10-17T01:33:40.423Z,94.31
2018-10-17T01:34:40.424Z,94.72
2018-10-17T01:35:40.388Z,95.03
2018-10-17T01:36:40.401Z,94.92
2018-10-17T01:37:40.366Z,95.13
2018-10-17T01:38:40.386Z,94.27
2018-10-17T01:39:40.340Z,93.86
2018-10-17T01:40:40.336Z,94.07
2018-10-17T01:41:40.340Z,93.41
2018-10-17T01:42:40.349Z,93.21
2018-10-17T01:43:40.324Z,92.80
2018-10-17T01:44:40.359Z,92.49
2018-10-17T01:45:40.277Z,91.99
2018-10-17T01:46:40.284Z,90.92
2018-10-17T01:47:40.272Z,90.92
2018-10-17T01:48:40.275Z,90.72
2018-10-17T01:49:40.234Z,90.62
2018-10-17T01:50:40.249Z,91.03
2018-10-17T01:51:40.260Z,90.83
2018-10-17T01:52:40.230Z,90.31
2018-10-17T01:53:40.186Z,90.01
2018-10-17T01:54:40.191Z,89.81
2018-10-17T01:55:40.221Z,90.22
2018-10-17T01:56:40.183Z,90.01
2018-10-17T01:57:40.180Z,90.31
2018-10-17T01:58:40.204Z,89.91
2018-10-17T01:59:40.132Z,90.22
2018-10-17T02:00:40.123Z,89.91
2018-10-17T02:01:40.122Z,90.31
2018-10-17T02:02:40.154Z,90.62
2018-10-17T02:03:40.102Z,90.66
2018-10-17T02:04:40.056Z,90.11
2018-10-17T02:05:40.119Z,89.95
2018-10-17T02:06:40.076Z,90.16
2018-10-17T02:07:40.060Z,90.05
2018-10-17T02:08:40.068Z,90.36
2018-10-17T02:09:40.028Z,89.79
2018-10-17T02:10:40.003Z,90.09
2018-10-17T02:11:39.989Z,90.91
2018-10-17T02:12:40.010Z,91.31
2018-10-17T02:13:39.992Z,91.22
2018-10-17T02:14:39.963Z,91.52
2018-10-17T02:15:39.960Z,91.62
2018-10-17T02:16:39.941Z,90.81
2018-10-17T02:17:39.953Z,91.22
2018-10-17T02:18:39.914Z,91.01
2018-10-17T02:19:39.920Z,91.22
2018-10-17T02:21:49.131Z,90.91
2018-10-17T02:22:50.123Z,90.81
2018-10-17T02:23:50.070Z,90.60
2018-10-17T02:24:50.060Z,91.11
2018-10-17T02:25:50.066Z,90.36
2018-10-17T02:26:50.033Z,90.40
2018-10-17T02:27:50.024Z,89.89
2018-10-17T02:28:50.019Z,89.59
2018-10-17T02:29:50.058Z,89.79
2018-10-17T02:30:50.014Z,90.20
2018-10-17T02:31:49.996Z,90.20
2018-10-17T02:32:49.981Z,90.40
2018-10-17T02:33:49.973Z,90.20
2018-10-17T02:34:50.012Z,90.36
2018-10-17T02:35:49.959Z,90.09
2018-10-17T02:36:49.940Z,90.40
2018-10-17T02:37:49.916Z,90.40
2018-10-17T02:38:49.939Z,90.40
2018-10-17T02:39:49.893Z,90.40
2018-10-17T02:40:49.902Z,90.50
2018-10-17T02:41:49.896Z,90.60
2018-10-17T02:42:49.903Z,90.50
2018-10-17T02:43:49.878Z,89.99
2018-10-17T02:44:49.867Z,89.94
2018-10-17T02:45:49.832Z,90.40
2018-10-17T02:46:49.888Z,89.94
2018-10-17T02:47:49.827Z,90.24
2018-10-17T02:48:49.824Z,89.83
2018-10-17T02:49:49.833Z,89.83
2018-10-17T02:50:49.784Z,90.85
2018-10-17T02:51:49.762Z,90.99
2018-10-17T02:52:49.781Z,90.89
2018-10-17T02:53:49.775Z,90.94
2018-10-17T02:54:49.772Z,90.79
2018-10-17T02:55:49.729Z,90.99
2018-10-17T02:56:49.715Z,91.03
2018-10-17T02:57:49.733Z,91.55
2018-10-17T02:58:49.712Z,91.14
2018-10-17T02:59:49.703Z,91.65
2018-10-17T03:00:49.732Z,92.16
2018-10-17T03:01:49.676Z,91.96
2018-10-17T03:02:49.697Z,92.71
2018-10-17T03:03:49.663Z,92.77
2018-10-17T03:04:49.650Z,92.71
2018-10-17T03:05:49.652Z,93.22
2018-10-17T03:06:49.641Z,92.50
2018-10-17T03:07:49.635Z,93.02
2018-10-17T03:08:49.615Z,93.22
2018-10-17T03:09:49.592Z,93.28
2018-10-17T03:10:49.555Z,93.32
2018-10-17T03:11:49.555Z,93.07
2018-10-17T03:12:49.745Z,93.28
2018-10-17T03:13:49.552Z,92.46
2018-10-17T03:14:49.536Z,92.22
2018-10-17T03:15:49.530Z,91.61
2018-10-17T03:16:49.502Z,91.40
2018-10-17T03:17:49.517Z,90.89
2018-10-17T03:18:49.523Z,91.09
2018-10-17T03:19:49.498Z,90.38
2018-10-17T03:20:49.458Z,90.38
2018-10-17T03:21:49.438Z,90.08
2018-10-17T03:22:49.432Z,90.38
2018-10-17T03:23:49.464Z,89.67
2018-10-17T03:24:49.451Z,90.18
2018-10-17T03:25:49.431Z,90.08
2018-10-17T03:26:49.439Z,90.28
2018-10-17T03:27:49.410Z,90.48
2018-10-17T03:28:49.385Z,90.03
2018-10-17T03:29:49.371Z,90.59
2018-10-17T03:30:49.375Z,90.69
2018-10-17T03:31:49.358Z,89.63
2018-10-17T03:32:49.332Z,89.42
2018-10-17T03:33:49.377Z,89.01
2018-10-17T03:34:49.318Z,88.92
2018-10-17T03:35:49.917Z,89.22
2018-10-17T03:36:49.300Z,89.01
2018-10-17T03:37:49.293Z,87.96
2018-10-17T03:38:49.277Z,88.31
2018-10-17T03:39:49.272Z,88.51
2018-10-17T03:40:49.287Z,88.71
2018-10-17T03:41:49.262Z,88.31
2018-10-17T03:42:49.222Z,88.51
2018-10-17T03:43:49.227Z,88.20
2018-10-17T03:44:49.219Z,88.40
2018-10-17T03:45:49.190Z,88.00
2018-10-17T03:46:49.195Z,88.40
2018-10-17T03:47:49.182Z,88.61
2018-10-17T03:48:49.176Z,88.10
2018-10-17T03:49:49.181Z,89.22
2018-10-17T03:50:49.139Z,89.12
2018-10-17T03:51:49.127Z,88.40
2018-10-17T03:52:49.114Z,88.31
2018-10-17T03:53:49.125Z,88.92
2018-10-17T03:54:49.106Z,88.31
2018-10-17T03:55:49.096Z,88.34
2018-10-17T03:56:49.077Z,88.65
2018-10-17T03:57:49.078Z,88.96
2018-10-17T03:58:49.081Z,89.16
2018-10-17T03:59:49.150Z,89.16
2018-10-17T04:00:49.026Z,89.47
2018-10-17T04:01:49.025Z,89.47
2018-10-17T04:02:49.066Z,89.47
2018-10-17T04:03:48.984Z,88.92
2018-10-17T04:04:49.025Z,89.01
2018-10-17T04:05:48.984Z,88.20
2018-10-17T04:06:48.961Z,88.45
2018-10-17T04:07:48.957Z,88.45
2018-10-17T04:08:48.932Z,88.31
2018-10-17T04:09:48.941Z,89.06
2018-10-17T04:10:48.954Z,88.96
2018-10-17T04:11:48.899Z,89.06
2018-10-17T04:12:48.941Z,89.16
2018-10-17T04:13:48.899Z,89.16
2018-10-17T04:14:48.872Z,89.26
2018-10-17T04:15:48.907Z,89.36
2018-10-17T04:16:48.867Z,89.51
2018-10-17T04:17:48.842Z,89.40
2018-10-17T04:18:48.822Z,89.97
2018-10-17T04:19:48.813Z,90.12
2018-10-17T04:20:48.854Z,90.32
2018-10-17T04:22:59.191Z,89.71
2018-10-17T04:24:00.138Z,90.42
2018-10-17T04:25:00.180Z,90.01
2018-10-17T04:26:00.141Z,90.16
2018-10-17T04:27:00.100Z,89.75
2018-10-17T04:28:00.097Z,90.00
2018-10-17T04:29:00.145Z,90.10
2018-10-17T04:30:00.099Z,90.31
2018-10-17T04:31:00.140Z,90.00
2018-10-17T04:32:00.049Z,90.35
2018-10-17T04:33:00.037Z,91.06
2018-10-17T04:34:00.033Z,91.57
2018-10-17T04:35:00.091Z,92.29
2018-10-17T04:36:00.068Z,92.59
2018-10-17T04:37:00.039Z,93.00
2018-10-17T04:37:59.989Z,92.80
2018-10-17T04:38:59.973Z,92.80
2018-10-17T04:39:59.966Z,93.10
2018-10-17T04:41:00.006Z,93.51
2018-10-17T04:41:59.950Z,93.26
2018-10-17T04:42:59.932Z,92.81
2018-10-17T04:43:59.920Z,92.30
2018-10-17T04:45:00.750Z,91.39
2018-10-17T04:45:59.895Z,90.83
2018-10-17T04:46:59.926Z,90.53
2018-10-17T04:47:59.910Z,90.53
2018-10-17T04:48:59.860Z,89.30
2018-10-17T04:49:59.852Z,89.26
2018-10-17T04:50:59.847Z,89.30
2018-10-17T04:51:59.858Z,89.36
2018-10-17T04:52:59.884Z,89.36
2018-10-17T04:53:59.815Z,89.47
2018-10-17T04:54:59.847Z,89.00
2018-10-17T04:55:59.798Z,89.26
2018-10-17T04:56:59.801Z,89.26
2018-10-17T04:57:59.776Z,88.49
2018-10-17T04:58:59.826Z,88.49
2018-10-17T04:59:59.786Z,88.34
2018-10-17T05:00:59.749Z,88.14
2018-10-17T05:01:59.749Z,89.47
2018-10-17T05:02:59.722Z,88.45
2018-10-17T05:03:59.710Z,88.49
2018-10-17T05:04:59.710Z,89.36
2018-10-17T05:05:59.706Z,88.49
2018-10-17T05:06:59.824Z,87.84
2018-10-17T05:07:59.662Z,88.96
2018-10-17T05:08:59.662Z,88.34
2018-10-17T05:09:59.637Z,88.34
2018-10-17T05:10:59.638Z,87.94
2018-10-17T05:11:59.651Z,88.04
2018-10-17T05:12:59.662Z,88.08
2018-10-17T05:13:59.598Z,88.28
2018-10-17T05:14:59.603Z,88.49
2018-10-17T05:15:59.570Z,89.30
2018-10-17T05:16:59.678Z,89.61
2018-10-17T05:17:59.599Z,89.30
2018-10-17T05:18:59.604Z,89.40
2018-10-17T05:19:59.533Z,90.67
2018-10-17T05:20:59.541Z,90.16
2018-10-17T05:21:59.527Z,90.16
2018-10-17T05:22:59.543Z,90.22
2018-10-17T05:23:59.487Z,90.53
2018-10-17T05:24:59.506Z,90.42
2018-10-17T05:25:59.466Z,90.63
2018-10-17T05:26:59.489Z,90.53
2018-10-17T05:27:59.445Z,89.92
2018-10-17T05:28:59.512Z,90.73
2018-10-17T05:29:59.439Z,90.63
2018-10-17T05:30:59.481Z,89.96
2018-10-17T05:31:59.418Z,89.34
2018-10-17T05:32:59.425Z,89.45
2018-10-17T05:33:59.392Z,89.55
2018-10-17T05:34:59.426Z,89.49
2018-10-17T05:35:59.368Z,90.20
2018-10-17T05:36:59.385Z,90.20
2018-10-17T05:37:59.439Z,91.22
2018-10-17T05:38:59.328Z,91.22
2018-10-17T05:39:59.389Z,91.12
2018-10-17T05:40:59.317Z,90.92
2018-10-17T05:41:59.299Z,91.33
2018-10-17T05:42:59.365Z,91.74
2018-10-17T05:43:59.324Z,91.22
2018-10-17T05:44:59.255Z,91.02
2018-10-17T05:45:59.251Z,91.33
2018-10-17T05:46:59.317Z,91.02
2018-10-17T05:47:59.243Z,90.92
2018-10-17T05:48:59.271Z,90.55
2018-10-17T05:49:59.210Z,90.25
2018-10-17T05:50:59.201Z,90.35
2018-10-17T05:51:59.207Z,90.55
2018-10-17T05:52:59.283Z,90.45
2018-10-17T05:53:59.173Z,91.20
2018-10-17T05:54:59.170Z,91.82
2018-10-17T05:55:59.191Z,91.61
2018-10-17T05:56:59.155Z,91.41
2018-10-17T05:57:59.117Z,91.82
2018-10-17T05:58:59.186Z,91.72
2018-10-17T05:59:59.138Z,92.23
2018-10-17T06:00:59.149Z,92.94
2018-10-17T06:01:59.170Z,93.35
2018-10-17T06:02:59.079Z,93.66
2018-10-17T06:03:59.048Z,93.31
2018-10-17T06:04:59.089Z,91.59
2018-10-17T06:05:59.041Z,91.18
2018-10-17T06:06:59.087Z,90.53
2018-10-17T06:07:59.006Z,89.20
2018-10-17T06:08:59.004Z,88.96
2018-10-17T06:09:59.017Z,89.10
2018-10-17T06:10:59.062Z,89.10
2018-10-17T06:11:58.967Z,89.30
2018-10-17T06:12:58.985Z,89.00
2018-10-17T06:13:58.954Z,89.10
2018-10-17T06:14:58.934Z,89.61
2018-10-17T06:15:58.923Z,89.81
2018-10-17T06:16:58.975Z,90.16
2018-10-17T06:17:58.899Z,90.32
2018-10-17T06:18:58.939Z,90.57
2018-10-17T06:19:58.876Z,90.67
2018-10-17T06:20:58.867Z,90.57
2018-10-17T06:21:58.865Z,90.77
2018-10-17T06:24:08.259Z,89.96
2018-10-17T06:25:09.127Z,90.47
2018-10-17T06:26:09.012Z,90.67
2018-10-17T06:27:09.043Z,90.71
2018-10-17T06:28:09.051Z,90.00
2018-10-17T06:29:09.127Z,91.02
2018-10-17T06:30:08.967Z,91.28
2018-10-17T06:31:09.032Z,91.33
2018-10-17T06:32:08.946Z,90.81
2018-10-17T06:33:08.937Z,91.08
2018-10-17T06:34:09.089Z,90.77
2018-10-17T06:35:08.939Z,90.98
2018-10-17T06:36:08.906Z,91.43
2018-10-17T06:37:08.903Z,90.88
2018-10-17T06:38:08.875Z,91.12
2018-10-17T06:39:08.880Z,90.57
2018-10-17T06:40:08.864Z,90.61
2018-10-17T06:41:08.893Z,90.06
2018-10-17T06:42:08.859Z,91.08
2018-10-17T06:43:08.882Z,91.08
2018-10-17T06:44:08.870Z,90.77
2018-10-17T06:45:08.818Z,90.88
2018-10-17T06:46:08.814Z,90.77
2018-10-17T06:47:08.881Z,90.98
2018-10-17T06:48:08.791Z,91.28
2018-10-17T06:49:08.869Z,90.94
2018-10-17T06:50:08.762Z,90.08
2018-10-17T06:51:08.802Z,89.22
2018-10-17T06:52:08.749Z,87.79
2018-10-17T06:53:08.758Z,87.24
2018-10-17T06:54:08.736Z,87.30
2018-10-17T06:55:08.736Z,86.39
2018-10-17T06:56:08.703Z,86.08
2018-10-17T06:57:08.668Z,85.98
2018-10-17T06:58:08.676Z,85.74
2018-10-17T06:59:08.736Z,84.97
2018-10-17T07:00:08.638Z,84.82
2018-10-17T07:01:08.628Z,85.23
2018-10-17T07:02:08.648Z,84.72
2018-10-17T07:03:08.597Z,85.43
2018-10-17T07:04:08.601Z,84.78
2018-10-17T07:05:08.600Z,84.42
2018-10-17T07:06:08.558Z,84.28
2018-10-17T07:07:08.661Z,84.48
2018-10-17T07:08:08.546Z,84.58
2018-10-17T07:09:08.559Z,84.38
2018-10-17T07:10:08.517Z,84.38
2018-10-17T07:11:09.390Z,84.58
2018-10-17T07:12:08.495Z,84.54
2018-10-17T07:13:08.541Z,84.17
2018-10-17T07:14:08.512Z,84.54
2018-10-17T07:15:08.530Z,83.53
2018-10-17T07:16:08.481Z,83.42
2018-10-17T07:17:08.496Z,83.53
2018-10-17T07:18:08.447Z,83.62
2018-10-17T07:19:08.484Z,83.22
2018-10-17T07:20:08.450Z,83.22
2018-10-17T07:21:08.406Z,83.42
2018-10-17T07:22:08.385Z,83.08
2018-10-17T07:23:08.442Z,83.18
2018-10-17T07:24:08.396Z,82.78
2018-10-17T07:25:08.378Z,82.78
2018-10-17T07:26:08.347Z,82.73
2018-10-17T07:27:09.303Z,82.47
2018-10-17T07:28:08.326Z,82.53
2018-10-17T07:29:08.457Z,82.33
2018-10-17T07:30:08.311Z,82.33
2018-10-17T07:31:08.304Z,81.99
2018-10-17T07:32:08.322Z,82.29
2018-10-17T07:33:08.259Z,82.19
2018-10-17T07:34:08.314Z,82.09
2018-10-17T07:35:08.284Z,81.18
2018-10-17T07:36:08.302Z,81.99
2018-10-17T07:37:08.264Z,80.93
2018-10-17T07:38:08.233Z,80.83
2018-10-17T07:39:08.219Z,81.18
2018-10-17T07:40:08.223Z,81.48
2018-10-17T07:41:08.191Z,81.04
2018-10-17T07:42:08.257Z,81.24
2018-10-17T07:43:08.167Z,80.73
2018-10-17T07:44:08.196Z,80.73
2018-10-17T07:45:08.188Z,80.08
2018-10-17T07:46:08.121Z,80.79
2018-10-17T07:47:08.122Z,79.88
2018-10-17T07:48:08.247Z,80.08
2018-10-17T07:49:08.115Z,79.54
2018-10-17T07:50:08.092Z,79.34
2018-10-17T07:51:08.073Z,79.13
2018-10-17T07:52:08.060Z,79.03
2018-10-17T07:53:08.128Z,79.24
2018-10-17T07:54:08.133Z,78.39
2018-10-17T07:55:08.013Z,78.69
2018-10-17T07:56:08.013Z,78.79
2018-10-17T07:57:07.998Z,78.39
2018-10-17T07:58:07.991Z,78.28
2018-10-17T07:59:07.969Z,77.34
2018-10-17T08:00:08.013Z,77.14
2018-10-17T08:01:07.970Z,77.14
2018-10-17T08:02:07.949Z,76.83
2018-10-17T08:03:07.931Z,77.34
2018-10-17T08:04:07.922Z,76.73
2018-10-17T08:05:07.932Z,76.23
2018-10-17T08:06:07.899Z,76.12
2018-10-17T08:07:07.893Z,76.03
2018-10-17T08:08:07.884Z,76.39
2018-10-17T08:09:07.872Z,76.29
2018-10-17T08:10:07.908Z,75.62
2018-10-17T08:11:07.839Z,76.03
2018-10-17T08:12:08.104Z,76.09
2018-10-17T08:13:07.821Z,76.19
2018-10-17T08:14:07.939Z,75.48
2018-10-17T08:15:07.830Z,75.34
2018-10-17T08:16:07.808Z,75.99
2018-10-17T08:17:07.770Z,75.75
2018-10-17T08:18:07.843Z,75.04
2018-10-17T08:19:07.809Z,75.45
2018-10-17T08:20:07.769Z,75.85
2018-10-17T08:21:07.761Z,75.71
2018-10-17T08:22:07.738Z,75.01
2018-10-17T08:23:07.738Z,75.41
2018-10-17T08:25:39.143Z,75.21
2018-10-17T08:26:40.104Z,75.17
2018-10-17T08:27:40.104Z,74.06
2018-10-17T08:28:40.088Z,73.55
2018-10-17T08:29:40.110Z,73.42
2018-10-17T08:30:40.085Z,72.81
2018-10-17T08:31:40.050Z,73.32
2018-10-17T08:32:40.067Z,73.02
2018-10-17T08:33:40.046Z,72.71
2018-10-17T08:34:40.044Z,71.67
2018-10-17T08:35:40.072Z,71.26
2018-10-17T08:36:40.242Z,70.93
2018-10-17T08:37:40.400Z,70.83
2018-10-17T08:38:39.975Z,70.83
2018-10-17T08:39:39.957Z,71.03
2018-10-17T08:40:39.951Z,70.49
2018-10-17T08:41:39.973Z,70.09
2018-10-17T08:42:39.922Z,69.99
2018-10-17T08:43:39.915Z,70.26
2018-10-17T08:44:39.914Z,70.39
2018-10-17T08:45:39.889Z,70.09
2018-10-17T08:46:39.925Z,70.09
2018-10-17T08:47:39.904Z,70.06
2018-10-17T08:48:39.880Z,69.35
2018-10-17T08:49:39.869Z,68.65
2018-10-17T08:50:39.887Z,69.15
2018-10-17T08:51:39.877Z,69.12
2018-10-17T08:52:39.841Z,68.71
2018-10-17T08:53:39.865Z,68.31
2018-10-17T08:54:39.842Z,68.31
2018-10-17T08:55:39.940Z,68.11
2018-10-17T08:56:39.796Z,67.80
2018-10-17T08:57:39.847Z,67.10
2018-10-17T08:58:39.760Z,66.90
2018-10-17T08:59:39.783Z,67.10
2018-10-17T09:00:39.768Z,67.10
2018-10-17T09:01:39.741Z,67.57
2018-10-17T09:02:39.758Z,66.87
2018-10-17T09:03:39.709Z,66.67
2018-10-17T09:04:39.726Z,66.47
2018-10-17T09:05:39.721Z,66.23
2018-10-17T09:06:39.712Z,65.53
2018-10-17T09:07:39.761Z,66.23
2018-10-17T09:08:39.669Z,66.83
2018-10-17T09:09:39.649Z,66.13
2018-10-17T09:10:39.637Z,66.23
2018-10-17T09:11:39.648Z,66.43
2018-10-17T09:12:39.638Z,66.23
2018-10-17T09:13:39.703Z,66.33
2018-10-17T09:14:39.605Z,66.53
2018-10-17T09:15:39.593Z,66.23
2018-10-17T09:16:39.656Z,66.03
2018-10-17T09:17:39.573Z,66.03
2018-10-17T09:18:40.220Z,66.43
2018-10-17T09:19:39.731Z,66.47
2018-10-17T09:20:39.833Z,66.03
2018-10-17T09:21:39.846Z,66.23
2018-10-17T09:22:39.592Z,66.74
2018-10-17T09:23:39.533Z,66.50
2018-10-17T09:24:39.515Z,65.90
2018-10-17T09:25:39.555Z,65.26
2018-10-17T09:26:39.505Z,65.26
2018-10-17T09:27:39.496Z,65.16
2018-10-17T09:28:39.429Z,65.16
2018-10-17T09:29:39.432Z,65.36
2018-10-17T09:30:39.457Z,65.09
2018-10-17T09:31:39.413Z,65.26
2018-10-17T09:32:39.408Z,64.96
2018-10-17T09:33:39.415Z,64.16
2018-10-17T09:34:39.387Z,63.93
2018-10-17T09:35:39.463Z,64.53
2018-10-17T09:36:39.347Z,63.79
2018-10-17T09:37:39.353Z,62.99
2018-10-17T09:38:39.361Z,63.29
2018-10-17T09:39:39.305Z,63.70
2018-10-17T09:40:39.303Z,63.17
2018-10-17T09:41:39.300Z,63.26
2018-10-17T09:42:39.327Z,62.66
2018-10-17T09:43:39.315Z,63.23
2018-10-17T09:44:39.336Z,63.13
2018-10-17T09:45:39.264Z,62.83
2018-10-17T09:46:39.269Z,61.90
2018-10-17T09:47:39.247Z,61.40
2018-10-17T09:48:39.245Z,62.00
2018-10-17T09:49:39.213Z,61.70
2018-10-17T09:50:39.209Z,61.70
2018-10-17T09:51:39.211Z,61.40
2018-10-17T09:52:39.191Z,61.10
2018-10-17T09:53:39.163Z,59.86
2018-10-17T09:54:39.164Z,60.97
2018-10-17T09:55:39.152Z,59.94
2018-10-17T09:56:39.144Z,59.53
2018-10-17T09:57:39.145Z,59.23
2018-10-17T09:58:39.104Z,59.00
2018-10-17T09:59:39.086Z,58.70
2018-10-17T10:00:39.092Z,58.50
2018-10-17T10:01:39.069Z,58.00
2018-10-17T10:02:39.095Z,58.81
2018-10-17T10:03:39.051Z,58.20
2018-10-17T10:04:39.044Z,59.00
2018-10-17T10:05:39.034Z,58.20
2018-10-17T10:06:39.012Z,57.90
2018-10-17T10:07:39.015Z,57.60
2018-10-17T10:08:39.036Z,58.30
2018-10-17T10:09:39.001Z,57.60
2018-10-17T10:10:39.005Z,57.83
2018-10-17T10:11:38.988Z,57.90
2018-10-17T10:12:38.975Z,57.20
2018-10-17T10:13:39.009Z,58.11
2018-10-17T10:14:38.947Z,58.18
2018-10-17T10:15:38.954Z,58.07
2018-10-17T10:16:38.941Z,58.18
2018-10-17T10:17:38.981Z,57.87
2018-10-17T10:18:38.921Z,57.87
2018-10-17T10:19:38.885Z,57.45
2018-10-17T10:20:38.865Z,58.15
2018-10-17T10:21:38.856Z,57.35
2018-10-17T10:22:38.855Z,56.82
2018-10-17T10:23:38.903Z,56.74
2018-10-17T10:24:38.867Z,56.24
2018-10-17T10:26:49.113Z,57.35
2018-10-17T10:27:50.091Z,56.95
2018-10-17T10:28:50.105Z,57.05
2018-10-17T10:29:50.125Z,56.42
2018-10-17T10:30:50.094Z,56.62
2018-10-17T10:31:50.070Z,55.72
2018-10-17T10:32:50.092Z,56.52
2018-10-17T10:33:50.066Z,55.72
2018-10-17T10:34:50.071Z,55.52
2018-10-17T10:35:50.051Z,55.92
2018-10-17T10:36:50.037Z,55.79
2018-10-17T10:37:50.002Z,55.29
2018-10-17T10:38:49.988Z,54.90
2018-10-17T10:39:50.000Z,54.69
2018-10-17T10:40:49.949Z,54.86
2018-10-17T10:41:50.756Z,54.37
2018-10-17T10:42:49.939Z,54.17
2018-10-17T10:43:49.915Z,53.74
2018-10-17T10:44:50.005Z,53.47
2018-10-17T10:45:49.895Z,53.67
2018-10-17T10:46:49.888Z,52.14
2018-10-17T10:47:49.880Z,52.14
2018-10-17T10:48:49.877Z,53.44
2018-10-17T10:49:49.880Z,53.04
2018-10-17T10:50:49.844Z,53.44
2018-10-17T10:51:49.856Z,53.24
2018-10-17T10:52:49.947Z,52.52
2018-10-17T10:53:49.843Z,52.92
2018-10-17T10:54:49.833Z,51.32
2018-10-17T10:55:49.798Z,51.32
2018-10-17T10:56:49.831Z,51.10
2018-10-17T10:57:49.846Z,51.59
2018-10-17T10:58:49.964Z,51.50
2018-10-17T10:59:49.773Z,51.59
2018-10-17T11:00:49.746Z,51.79
2018-10-17T11:01:49.769Z,51.94
2018-10-17T11:02:49.760Z,51.92
2018-10-17T11:03:49.720Z,51.89
2018-10-17T11:04:49.857Z,50.99
2018-10-17T11:05:49.941Z,51.79
2018-10-17T11:06:49.683Z,51.47
2018-10-17T11:07:49.685Z,50.07
2018-10-17T11:08:49.680Z,51.20
2018-10-17T11:09:49.658Z,51.89
2018-10-17T11:10:49.649Z,52.00
2018-10-17T11:11:49.611Z,51.07
2018-10-17T11:12:49.601Z,50.47
2018-10-17T11:13:49.652Z,50.30
2018-10-17T11:14:49.756Z,50.40
2018-10-17T11:15:49.588Z,50.70
2018-10-17T11:16:49.576Z,50.27
2018-10-17T11:17:49.556Z,50.37
2018-10-17T11:18:49.544Z,50.07
2018-10-17T11:19:49.559Z,49.68
2018-10-17T11:20:49.585Z,49.57
2018-10-17T11:21:49.616Z,49.57
2018-10-17T11:22:50.277Z,49.57
2018-10-17T11:23:49.527Z,51.29
2018-10-17T11:24:49.518Z,50.49
2018-10-17T11:25:49.488Z,50.90
2018-10-17T11:26:49.537Z,50.30
2018-10-17T11:27:49.478Z,50.30
2018-10-17T11:28:49.486Z,50.10
2018-10-17T11:29:49.482Z,50.42
2018-10-17T11:30:49.464Z,50.49
2018-10-17T11:31:49.468Z,50.10
2018-10-17T11:32:49.398Z,49.87
2018-10-17T11:33:49.381Z,49.77
2018-10-17T11:34:49.390Z,50.17
2018-10-17T11:35:49.361Z,49.55
2018-10-17T11:36:49.363Z,49.33
2018-10-17T11:37:49.398Z,49.23
2018-10-17T11:38:49.341Z,49.03
2018-10-17T11:39:49.340Z,49.53
2018-10-17T11:40:49.364Z,50.02
2018-10-17T11:41:49.321Z,49.90
2018-10-17T11:42:49.303Z,50.00
2018-10-17T11:43:49.282Z,49.60
2018-10-17T11:44:49.326Z,49.43
2018-10-17T11:45:49.265Z,50.02
2018-10-17T11:46:49.267Z,50.02
2018-10-17T11:47:49.401Z,49.83
2018-10-17T11:48:49.235Z,49.90
2018-10-17T11:49:49.242Z,49.23
2018-10-17T11:50:49.211Z,49.63
2018-10-17T11:51:49.220Z,49.23
2018-10-17T11:52:49.246Z,49.33
2018-10-17T11:53:49.177Z,49.53
2018-10-17T11:54:49.213Z,49.30
2018-10-17T11:55:49.174Z,48.91
2018-10-17T11:56:49.201Z,49.28
2018-10-17T11:57:49.163Z,49.28
2018-10-17T11:58:49.120Z,48.98
2018-10-17T11:59:49.278Z,47.81
2018-10-17T12:00:49.171Z,49.33
2018-10-17T12:01:49.109Z,49.43
2018-10-17T12:02:49.069Z,49.43
2018-10-17T12:03:49.266Z,49.30
2018-10-17T12:04:49.168Z,48.71
2018-10-17T12:05:49.328Z,47.71
2018-10-17T12:06:49.038Z,48.93
2018-10-17T12:07:49.027Z,47.81
2018-10-17T12:08:49.029Z,47.71
2018-10-17T12:09:49.001Z,47.02
2018-10-17T12:10:49.007Z,47.53
2018-10-17T12:11:49.010Z,46.61
2018-10-17T12:12:49.012Z,47.31
2018-10-17T12:13:48.976Z,47.41
2018-10-17T12:14:48.961Z,47.91
2018-10-17T12:15:48.978Z,47.61
2018-10-17T12:16:48.948Z,47.91
2018-10-17T12:17:48.938Z,47.61
2018-10-17T12:18:48.941Z,47.91
2018-10-17T12:19:48.944Z,47.81
2018-10-17T12:20:49.001Z,48.73
2018-10-17T12:21:48.898Z,48.71
2018-10-17T12:22:48.871Z,47.81
2018-10-17T12:23:48.853Z,47.29
2018-10-17T12:24:48.869Z,47.37
2018-10-17T12:25:48.876Z,47.27
2018-10-17T12:28:30.979Z,46.67
2018-10-17T12:29:31.852Z,46.27
2018-10-17T12:30:31.863Z,45.18
2018-10-17T12:31:31.868Z,45.67
2018-10-17T12:32:31.891Z,46.08
2018-10-17T12:33:31.827Z,46.47
2018-10-17T12:34:31.818Z,45.57
2018-10-17T12:35:31.829Z,45.97
2018-10-17T12:36:31.802Z,45.97
2018-10-17T12:37:31.798Z,45.67
2018-10-17T12:38:31.781Z,45.78
2018-10-17T12:39:31.876Z,45.78
2018-10-17T12:40:31.921Z,44.38
2018-10-17T12:41:31.765Z,45.67
2018-10-17T12:42:31.735Z,45.48
2018-10-17T12:43:31.687Z,45.78
2018-10-17T12:44:31.683Z,45.37
2018-10-17T12:45:31.698Z,44.88
2018-10-17T12:46:31.681Z,45.18
2018-10-17T12:47:31.652Z,46.20
2018-10-17T12:48:31.632Z,45.79
2018-10-17T12:49:31.679Z,46.57
2018-10-17T12:50:31.623Z,46.17
2018-10-17T12:51:31.624Z,46.95
2018-10-17T12:52:31.673Z,46.35
2018-10-17T12:53:31.616Z,46.33
2018-10-17T12:54:31.617Z,45.73
2018-10-17T12:55:31.561Z,45.83
2018-10-17T12:56:31.620Z,45.73
2018-10-17T12:57:31.544Z,45.73
2018-10-17T12:58:31.542Z,46.23
2018-10-17T12:59:31.516Z,45.93
2018-10-17T13:00:31.532Z,45.43
2018-10-17T13:01:31.543Z,46.03